createdAt,value
2019-04-04T00:01:41.022Z,98593.08
2019-04-04T00:04:07.699Z,98589.23
2019-04-04T00:06:34.294Z,98594.14
2019-04-04T00:09:02.095Z,98583.43
2019-04-04T00:11:29.294Z,98585.00
2019-04-04T00:13:55.899Z,98576.34
2019-04-04T00:16:22.503Z,98580.15
2019-04-04T00:18:49.116Z,98577.52
2019-04-04T00:21:15.769Z,98575.09
2019-04-04T00:23:42.393Z,98575.67
2019-04-04T00:26:10.856Z,98567.38
2019-04-04T00:28:37.364Z,98562.95
2019-04-04T00:31:03.960Z,98560.42
2019-04-04T00:33:30.587Z,98566.64
2019-04-04T00:35:57.176Z,98560.05
2019-04-04T00:38:23.810Z,98566.78
2019-04-04T00:40:50.402Z,98561.00
2019-04-04T00:43:17.043Z,98563.78
2019-04-04T00:45:43.712Z,98564.25
2019-04-04T00:48:10.425Z,98563.78
2019-04-04T00:50:37.341Z,98569.05
2019-04-04T00:53:04.044Z,98566.78
2019-04-04T00:55:30.819Z,98562.94
2019-04-04T00:57:57.439Z,98563.64
2019-04-04T01:00:24.638Z,98561.51
2019-04-04T01:02:52.376Z,98556.70
2019-04-04T01:05:18.976Z,98554.07
2019-04-04T01:07:45.575Z,98553.09
2019-04-04T01:10:12.189Z,98553.09
2019-04-04T01:12:38.779Z,98546.48
2019-04-04T01:15:05.377Z,98545.67
2019-04-04T01:17:33.004Z,98539.89
2019-04-04T01:20:00.282Z,98543.85
2019-04-04T01:22:26.881Z,98541.22
2019-04-04T01:24:53.489Z,98538.94
2019-04-04T01:27:20.083Z,98537.15
2019-04-04T01:29:46.670Z,98541.22
2019-04-04T01:32:13.272Z,98537.25
2019-04-04T01:34:39.872Z,98531.98
2019-04-04T01:37:06.477Z,98531.98
2019-04-04T01:39:33.109Z,98529.34
2019-04-04T01:41:59.695Z,98532.59
2019-04-04T01:44:26.323Z,98541.72
2019-04-04T01:46:52.998Z,98539.19
2019-04-04T01:49:21.205Z,98537.87
2019-04-04T01:51:47.936Z,98533.91
2019-04-04T01:54:14.593Z,98519.51
2019-04-04T01:56:41.248Z,98525.38
2019-04-04T01:59:07.873Z,98530.28
2019-04-04T02:01:34.516Z,98522.36
2019-04-04T02:04:01.359Z,98522.00
2019-04-04T02:06:28.718Z,98523.42
2019-04-04T02:08:55.793Z,98516.46
2019-04-04T02:11:22.386Z,98511.77
2019-04-04T02:13:49.008Z,98512.34
2019-04-04T02:16:17.011Z,98518.58
2019-04-04T02:18:43.956Z,98517.26
2019-04-04T02:21:10.546Z,98511.39
2019-04-04T02:23:37.182Z,98516.19
2019-04-04T02:26:05.154Z,98523.99
2019-04-04T02:28:32.142Z,98519.77
2019-04-04T02:30:58.757Z,98525.78
2019-04-04T02:33:25.362Z,98526.27
2019-04-04T02:35:51.958Z,98531.54
2019-04-04T02:38:18.560Z,98522.78
2019-04-04T02:40:45.155Z,98523.15
2019-04-04T02:43:11.758Z,98518.72
2019-04-04T02:45:39.066Z,98518.83
2019-04-04T02:48:05.756Z,98523.73
2019-04-04T02:50:35.689Z,98523.36
2019-04-04T02:53:00.687Z,98531.38
2019-04-04T02:55:29.955Z,98527.53
2019-04-04T02:57:55.743Z,98533.76
2019-04-04T03:00:26.376Z,98524.53
2019-04-04T03:02:51.115Z,98519.25
2019-04-04T03:05:19.250Z,98523.68
2019-04-04T03:07:46.058Z,98522.84
2019-04-04T03:10:15.585Z,98519.83
2019-04-04T03:12:41.025Z,98522.47
2019-04-04T03:15:09.385Z,98528.70
2019-04-04T03:17:36.043Z,98524.73
2019-04-04T03:20:02.672Z,98526.91
2019-04-04T03:22:29.327Z,98530.86
2019-04-04T03:24:55.969Z,98530.02
2019-04-04T03:27:25.785Z,98536.13
2019-04-04T03:29:50.935Z,98523.89
2019-04-04T03:32:17.731Z,98525.69
2019-04-04T03:34:50.184Z,98522.21
2019-04-04T03:37:12.855Z,98535.87
2019-04-04T03:39:39.494Z,98531.91
2019-04-04T03:42:08.151Z,98535.13
2019-04-04T03:44:34.427Z,98534.66
2019-04-04T03:47:01.022Z,98532.16
2019-04-04T03:49:27.617Z,98528.78
2019-04-04T03:51:54.223Z,98538.02
2019-04-04T03:54:23.353Z,98525.41
2019-04-04T03:56:49.225Z,98531.16
2019-04-04T03:59:15.838Z,98532.11
2019-04-04T04:01:45.412Z,98525.98
2019-04-04T04:04:10.840Z,98532.58
2019-04-04T04:06:41.332Z,98535.33
2019-04-04T04:09:05.800Z,98532.80
2019-04-04T04:11:34.670Z,98527.99
2019-04-04T04:14:00.729Z,98535.06
2019-04-04T04:16:27.317Z,98529.89
2019-04-04T04:18:55.246Z,98528.67
2019-04-04T04:21:22.080Z,98529.63
2019-04-04T04:23:49.991Z,98535.74
2019-04-04T04:26:16.796Z,98541.16
2019-04-04T04:28:43.424Z,98540.64
2019-04-04T04:31:14.043Z,98536.22
2019-04-04T04:33:38.453Z,98539.59
2019-04-04T04:36:05.097Z,98540.91
2019-04-04T04:38:31.715Z,98541.28
2019-04-04T04:40:58.379Z,98545.61
2019-04-04T04:43:25.043Z,98544.08
2019-04-04T04:45:51.648Z,98543.87
2019-04-04T04:48:18.255Z,98536.22
2019-04-04T04:50:44.877Z,98543.41
2019-04-04T04:53:11.476Z,98545.84
2019-04-04T04:55:38.154Z,98548.63
2019-04-04T04:58:04.852Z,98543.52
2019-04-04T05:00:31.467Z,98545.22
2019-04-04T05:02:58.088Z,98547.06
2019-04-04T05:05:24.733Z,98546.16
2019-04-04T05:07:51.333Z,98542.69
2019-04-04T05:10:17.930Z,98545.48
2019-04-04T05:12:44.572Z,98541.56
2019-04-04T05:15:11.178Z,98545.53
2019-04-04T05:17:37.818Z,98546.05
2019-04-04T05:20:04.408Z,98547.27
2019-04-04T05:22:31.024Z,98552.25
2019-04-04T05:25:07.776Z,98551.33
2019-04-04T05:27:25.983Z,98551.17
2019-04-04T05:29:52.574Z,98549.38
2019-04-04T05:32:21.750Z,98552.05
2019-04-04T05:34:47.530Z,98553.62
2019-04-04T05:37:14.160Z,98547.88
2019-04-04T05:39:40.761Z,98549.92
2019-04-04T05:42:07.503Z,98554.89
2019-04-04T05:44:34.373Z,98559.12
2019-04-04T05:47:01.093Z,98551.90
2019-04-04T05:49:27.701Z,98553.13
2019-04-04T05:51:54.381Z,98558.42
2019-04-04T05:54:21.012Z,98555.65
2019-04-04T05:56:49.062Z,98553.02
2019-04-04T05:59:15.980Z,98557.33
2019-04-04T06:01:42.621Z,98552.89
2019-04-04T06:04:09.270Z,98556.02
2019-04-04T06:06:35.889Z,98555.99
2019-04-04T06:09:02.588Z,98558.53
2019-04-04T06:11:29.224Z,98551.77
2019-04-04T06:13:58.716Z,98553.09
2019-04-04T06:16:24.157Z,98541.78
2019-04-04T06:18:50.771Z,98541.18
2019-04-04T06:21:18.824Z,98538.89
2019-04-04T06:23:45.674Z,98546.91
2019-04-04T06:26:12.315Z,98545.58
2019-04-04T06:28:38.987Z,98542.41
2019-04-04T06:31:05.591Z,98544.45
2019-04-04T06:33:34.944Z,98541.14
2019-04-04T06:36:00.508Z,98538.48
2019-04-04T06:38:27.125Z,98546.75
2019-04-04T06:40:53.723Z,98551.06
2019-04-04T06:43:20.355Z,98555.38
2019-04-04T06:45:47.564Z,98555.45
2019-04-04T06:48:14.360Z,98549.41
2019-04-04T06:50:42.990Z,98555.01
2019-04-04T06:53:10.888Z,98557.77
2019-04-04T06:55:40.037Z,98558.45
2019-04-04T06:58:08.473Z,98562.61
2019-04-04T07:00:34.306Z,98564.78
2019-04-04T07:03:00.900Z,98559.91
2019-04-04T07:05:27.531Z,98564.83
2019-04-04T07:07:54.118Z,98567.70
2019-04-04T07:10:21.823Z,98562.50
2019-04-04T07:12:48.988Z,98570.27
2019-04-04T07:15:16.106Z,98555.61
2019-04-04T07:17:42.972Z,98559.00
2019-04-04T07:20:09.602Z,98561.15
2019-04-04T07:22:36.197Z,98557.14
2019-04-04T07:25:05.743Z,98561.80
2019-04-04T07:27:31.261Z,98554.27
2019-04-04T07:29:57.894Z,98555.08
2019-04-04T07:32:24.489Z,98552.50
2019-04-04T07:34:51.122Z,98555.35
2019-04-04T07:37:17.719Z,98546.23
2019-04-04T07:39:44.357Z,98548.91
2019-04-04T07:42:10.951Z,98541.95
2019-04-04T07:44:37.585Z,98544.78
2019-04-04T07:47:04.173Z,98537.87
2019-04-04T07:49:30.807Z,98544.30
2019-04-04T07:51:57.405Z,98529.72
2019-04-04T07:54:24.033Z,98547.44
2019-04-04T07:56:50.623Z,98534.30
2019-04-04T07:59:17.262Z,98539.12
2019-04-04T08:01:51.051Z,98539.73
2019-04-04T08:04:12.264Z,98538.81
2019-04-04T08:06:38.863Z,98546.64
2019-04-04T08:09:05.517Z,98535.39
2019-04-04T08:11:32.114Z,98538.30
2019-04-04T08:13:58.741Z,98541.21
2019-04-04T08:16:25.339Z,98540.95
2019-04-04T08:18:51.977Z,98534.14
2019-04-04T08:21:18.577Z,98545.38
2019-04-04T08:23:45.168Z,98539.44
2019-04-04T08:26:11.784Z,98545.50
2019-04-04T08:28:38.394Z,98551.59
2019-04-04T08:31:09.710Z,98542.32
2019-04-04T08:33:35.326Z,98554.25
2019-04-04T08:36:06.344Z,98559.65
2019-04-04T08:38:30.234Z,98561.04
2019-04-04T08:40:56.836Z,98558.27
2019-04-04T08:43:23.476Z,98563.66
2019-04-04T08:45:50.069Z,98558.84
2019-04-04T08:48:16.742Z,98560.89
2019-04-04T08:50:43.339Z,98566.10
2019-04-04T08:53:09.932Z,98561.95
2019-04-04T08:55:36.519Z,98557.83
2019-04-04T08:58:03.121Z,98559.18
2019-04-04T09:00:29.712Z,98561.19
2019-04-04T09:02:56.323Z,98561.37
2019-04-04T09:05:22.915Z,98559.54
2019-04-04T09:07:49.503Z,98555.52
2019-04-04T09:10:16.191Z,98555.54
2019-04-04T09:12:42.822Z,98559.70
2019-04-04T09:15:09.417Z,98542.09
2019-04-04T09:17:36.007Z,98554.44
2019-04-04T09:20:02.603Z,98547.36
2019-04-04T09:25:14.619Z,98532.55
2019-04-04T09:27:41.190Z,98530.33
2019-04-04T09:30:07.771Z,98531.73
2019-04-04T09:32:34.342Z,98529.41
2019-04-04T09:35:00.913Z,98528.41
2019-04-04T09:37:27.488Z,98524.14
2019-04-04T09:39:54.062Z,98526.72
2019-04-04T09:42:20.639Z,98518.84
2019-04-04T09:44:47.203Z,98535.22
2019-04-04T09:47:13.775Z,98536.60
2019-04-04T09:49:40.352Z,98537.37
2019-04-04T09:52:06.944Z,98531.70
2019-04-04T09:54:33.558Z,98529.56
2019-04-04T09:57:00.129Z,98526.95
2019-04-04T09:59:26.745Z,98527.97
2019-04-04T10:01:53.315Z,98532.83
2019-04-04T10:04:19.889Z,98520.11
2019-04-04T10:06:46.500Z,98515.36
2019-04-04T10:09:16.039Z,98519.47
2019-04-04T10:11:41.396Z,98511.27
2019-04-04T10:14:07.976Z,98517.00
2019-04-04T10:16:34.587Z,98513.83
2019-04-04T10:19:01.168Z,98507.48
2019-04-04T10:21:27.954Z,98545.45
2019-04-04T10:23:54.524Z,98514.92
2019-04-04T10:26:21.125Z,98523.89
2019-04-04T10:28:47.705Z,98500.41
2019-04-04T10:31:14.314Z,98504.52
2019-04-04T10:33:42.402Z,98500.92
2019-04-04T10:36:09.177Z,98504.00
2019-04-04T10:38:35.751Z,98502.70
2019-04-04T10:41:02.370Z,98505.98
2019-04-04T10:43:28.929Z,98503.96
2019-04-04T10:45:56.619Z,98494.19
2019-04-04T10:48:23.199Z,98507.31
2019-04-04T10:50:49.809Z,98512.41
2019-04-04T10:53:16.398Z,98502.07
2019-04-04T10:55:42.987Z,98512.89
2019-04-04T10:58:09.628Z,98501.69
2019-04-04T11:00:36.244Z,98516.44
2019-04-04T11:03:02.823Z,98508.55
2019-04-04T11:05:29.424Z,98519.58
2019-04-04T11:07:56.930Z,98517.22
2019-04-04T11:10:23.681Z,98513.63
2019-04-04T11:12:50.252Z,98508.58
2019-04-04T11:15:16.870Z,98505.22
2019-04-04T11:17:43.443Z,98504.73
2019-04-04T11:20:10.057Z,98517.77
2019-04-04T11:22:36.692Z,98509.92
2019-04-04T11:25:03.295Z,98509.67
2019-04-04T11:27:29.870Z,98504.61
2019-04-04T11:29:56.451Z,98509.33
2019-04-04T11:32:23.048Z,98502.40
2019-04-04T11:34:53.369Z,98506.72
2019-04-04T11:37:17.993Z,98502.59
2019-04-04T11:39:53.989Z,98493.49
2019-04-04T11:42:12.888Z,98489.67
2019-04-04T11:44:39.464Z,98497.00
2019-04-04T11:47:06.045Z,98491.82
2019-04-04T11:49:32.619Z,98501.80
2019-04-04T11:51:59.189Z,98507.55
2019-04-04T11:54:25.763Z,98510.90
2019-04-04T11:56:52.345Z,98495.39
2019-04-04T11:59:18.923Z,98490.66
2019-04-04T12:01:45.491Z,98494.55
2019-04-04T12:04:12.065Z,98487.14
2019-04-04T12:06:38.640Z,98490.84
2019-04-04T12:09:05.221Z,98476.41
2019-04-04T12:11:31.792Z,98476.13
2019-04-04T12:13:58.374Z,98476.12
2019-04-04T12:16:24.957Z,98469.20
2019-04-04T12:18:51.528Z,98470.11
2019-04-04T12:21:18.105Z,98463.93
2019-04-04T12:23:44.688Z,98463.74
2019-04-04T12:26:11.293Z,98463.88
2019-04-04T12:28:37.874Z,98453.52
2019-04-04T12:31:04.569Z,98448.56
2019-04-04T12:33:31.163Z,98442.89
2019-04-04T12:35:57.752Z,98440.15
2019-04-04T12:38:24.350Z,98450.78
2019-04-04T12:40:50.958Z,98443.98
2019-04-04T12:43:17.531Z,98439.32
2019-04-04T12:45:44.275Z,98439.77
2019-04-04T12:48:10.847Z,98431.66
2019-04-04T12:50:37.429Z,98424.72
2019-04-04T12:53:04.013Z,98430.50
2019-04-04T12:55:30.606Z,98432.05
2019-04-04T12:57:57.175Z,98423.14
2019-04-04T13:00:23.756Z,98420.98
2019-04-04T13:02:50.324Z,98420.53
2019-04-04T13:05:16.910Z,98413.60
2019-04-04T13:07:43.514Z,98411.35
2019-04-04T13:10:11.643Z,98409.26
2019-04-04T13:12:38.479Z,98411.61
2019-04-04T13:15:05.051Z,98404.83
2019-04-04T13:17:31.657Z,98407.11
2019-04-04T13:19:58.230Z,98403.17
2019-04-04T13:22:24.964Z,98410.66
2019-04-04T13:24:51.549Z,98397.98
2019-04-04T13:27:18.154Z,98405.61
2019-04-04T13:29:44.739Z,98405.20
2019-04-04T13:32:11.343Z,98407.35
2019-04-04T13:34:37.924Z,98402.63
2019-04-04T13:37:04.542Z,98399.33
2019-04-04T13:39:31.126Z,98395.10
2019-04-04T13:41:57.718Z,98391.00
2019-04-04T13:44:24.295Z,98376.94
2019-04-04T13:46:50.892Z,98374.62
2019-04-04T13:49:17.455Z,98382.48
2019-04-04T13:51:44.058Z,98372.02
2019-04-04T13:54:10.635Z,98374.20
2019-04-04T13:56:37.247Z,98376.19
2019-04-04T13:59:05.865Z,98375.77
2019-04-04T14:01:32.148Z,98367.11
2019-04-04T14:03:58.723Z,98370.64
2019-04-04T14:06:25.345Z,98373.16
2019-04-04T14:08:51.924Z,98370.16
2019-04-04T14:11:18.534Z,98363.62
2019-04-04T14:13:48.571Z,98358.91
2019-04-04T14:16:13.413Z,98357.47
2019-04-04T14:18:42.366Z,98355.91
2019-04-04T14:21:08.342Z,98348.26
2019-04-04T14:23:34.930Z,98357.40
2019-04-04T14:26:01.532Z,98361.55
2019-04-04T14:28:28.565Z,98354.67
2019-04-04T14:30:55.850Z,98353.02
2019-04-04T14:33:22.429Z,98348.38
2019-04-04T14:35:49.114Z,98348.17
2019-04-04T14:38:15.688Z,98339.58
2019-04-04T14:40:42.261Z,98334.89
2019-04-04T14:43:08.848Z,98329.80
2019-04-04T14:45:35.434Z,98342.28
2019-04-04T14:48:02.018Z,98334.14
2019-04-04T14:50:28.597Z,98334.39
2019-04-04T14:52:55.168Z,98327.84
2019-04-04T14:55:21.768Z,98340.09
2019-04-04T14:57:48.346Z,98338.53
2019-04-04T15:00:15.921Z,98346.11
2019-04-04T15:02:42.681Z,98345.32
2019-04-04T15:05:10.295Z,98341.68
2019-04-04T15:07:36.908Z,98345.87
2019-04-04T15:10:03.491Z,98342.66
2019-04-04T15:12:30.079Z,98342.84
2019-04-04T15:14:56.648Z,98337.16
2019-04-04T15:17:23.310Z,98340.77
2019-04-04T15:19:49.903Z,98346.89
2019-04-04T15:22:16.562Z,98341.15
2019-04-04T15:24:43.135Z,98344.53
2019-04-04T15:27:09.832Z,98358.70
2019-04-04T15:29:36.413Z,98345.91
2019-04-04T15:32:03.023Z,98349.62
2019-04-04T15:34:29.591Z,98346.15
2019-04-04T15:36:56.200Z,98343.35
2019-04-04T15:39:22.787Z,98349.92
2019-04-04T15:41:49.381Z,98349.12
2019-04-04T15:44:15.964Z,98352.02
2019-04-04T15:46:42.567Z,98349.16
2019-04-04T15:49:09.139Z,98342.78
2019-04-04T15:51:35.807Z,98344.73
2019-04-04T15:54:02.406Z,98346.16
2019-04-04T15:56:28.983Z,98349.39
2019-04-04T15:58:55.560Z,98351.09
2019-04-04T16:01:22.135Z,98337.84
2019-04-04T16:03:48.714Z,98357.72
2019-04-04T16:06:15.287Z,98350.91
2019-04-04T16:08:41.859Z,98357.50
2019-04-04T16:11:08.516Z,98349.13
2019-04-04T16:13:35.099Z,98347.23
2019-04-04T16:16:01.677Z,98353.64
2019-04-04T16:18:28.297Z,98350.52
2019-04-04T16:20:54.873Z,98353.80
2019-04-04T16:23:21.497Z,98356.59
2019-04-04T16:25:48.065Z,98355.20
2019-04-04T16:28:14.682Z,98356.95
2019-04-04T16:30:41.261Z,98360.55
2019-04-04T16:33:07.941Z,98361.08
2019-04-04T16:35:34.582Z,98363.31
2019-04-04T16:38:01.323Z,98365.20
2019-04-04T16:40:27.914Z,98365.39
2019-04-04T16:42:54.517Z,98363.58
2019-04-04T16:45:21.092Z,98361.92
2019-04-04T16:47:47.707Z,98362.91
2019-04-04T16:50:14.290Z,98356.39
2019-04-04T16:52:40.902Z,98363.91
2019-04-04T16:55:07.483Z,98367.41
2019-04-04T16:57:34.129Z,98362.86
2019-04-04T17:00:00.709Z,98362.52
2019-04-04T17:02:27.313Z,98363.48
2019-04-04T17:04:53.890Z,98369.78
2019-04-04T17:07:20.515Z,98371.73
2019-04-04T17:09:47.091Z,98373.36
2019-04-04T17:12:15.157Z,98365.62
2019-04-04T17:14:42.044Z,98368.91
2019-04-04T17:17:08.643Z,98368.55
2019-04-04T17:19:35.222Z,98372.80
2019-04-04T17:22:01.799Z,98370.59
2019-04-04T17:24:28.372Z,98372.05
2019-04-04T17:26:57.388Z,98371.97
2019-04-04T17:29:23.348Z,98373.23
2019-04-04T17:31:50.287Z,98371.48
2019-04-04T17:34:17.093Z,98372.77
2019-04-04T17:36:43.728Z,98378.70
2019-04-04T17:39:10.304Z,98373.62
2019-04-04T17:41:37.011Z,98376.58
2019-04-04T17:44:03.634Z,98375.66
2019-04-04T17:46:30.211Z,98378.11
2019-04-04T17:48:56.789Z,98389.36
2019-04-04T17:51:23.773Z,98384.80
2019-04-04T17:53:52.921Z,98392.25
2019-04-04T17:56:18.964Z,98385.69
2019-04-04T17:58:45.601Z,98389.95
2019-04-04T18:01:12.181Z,98394.24
2019-04-04T18:03:38.857Z,98395.03
2019-04-04T18:06:05.432Z,98400.64
2019-04-04T18:08:32.045Z,98392.29
2019-04-04T18:10:58.621Z,98389.55
2019-04-04T18:13:25.230Z,98391.16
2019-04-04T18:15:51.808Z,98398.45
2019-04-04T18:18:18.419Z,98399.58
2019-04-04T18:20:44.994Z,98412.37
2019-04-04T18:23:11.602Z,98404.19
2019-04-04T18:25:38.186Z,98413.64
2019-04-04T18:28:04.791Z,98420.09
2019-04-04T18:30:31.362Z,98413.87
2019-04-04T18:32:57.969Z,98420.17
2019-04-04T18:35:24.541Z,98422.66
2019-04-04T18:37:51.178Z,98415.45
2019-04-04T18:40:17.749Z,98417.07
2019-04-04T18:42:53.093Z,98418.69
2019-04-04T18:45:12.622Z,98421.14
2019-04-04T18:47:39.199Z,98414.80
2019-04-04T18:50:05.773Z,98418.94
2019-04-04T18:52:32.360Z,98418.73
2019-04-04T18:54:58.937Z,98420.34
2019-04-04T18:57:25.508Z,98420.14
2019-04-04T18:59:52.093Z,98419.09
2019-04-04T19:02:18.679Z,98417.09
2019-04-04T19:04:45.254Z,98419.90
2019-04-04T19:07:11.826Z,98420.04
2019-04-04T19:09:38.476Z,98419.83
2019-04-04T19:12:05.043Z,98423.96
2019-04-04T19:14:31.641Z,98421.09
2019-04-04T19:16:58.216Z,98425.22
2019-04-04T19:19:24.815Z,98425.19
2019-04-04T19:21:51.388Z,98426.80
2019-04-04T19:24:17.991Z,98422.25
2019-04-04T19:26:44.574Z,98422.17
2019-04-04T19:29:11.181Z,98421.13
2019-04-04T19:31:37.758Z,98418.92
2019-04-04T19:34:04.460Z,98418.71
2019-04-04T19:36:31.056Z,98412.48
2019-04-04T19:38:57.697Z,98420.38
2019-04-04T19:41:24.339Z,98415.55
2019-04-04T19:43:51.109Z,98419.19
2019-04-04T19:46:17.686Z,98419.02
2019-04-04T19:48:44.282Z,98413.80
2019-04-04T19:51:10.860Z,98416.95
2019-04-04T19:53:38.675Z,98411.28
2019-04-04T19:56:05.257Z,98412.27
2019-04-04T19:58:31.871Z,98416.25
2019-04-04T20:00:58.789Z,98408.28
2019-04-04T20:03:25.372Z,98414.57
2019-04-04T20:05:51.945Z,98413.87
2019-04-04T20:08:18.534Z,98412.53
2019-04-04T20:10:45.124Z,98410.16
2019-04-04T20:13:11.723Z,98410.78
2019-04-04T20:15:38.304Z,98411.45
2019-04-04T20:18:04.950Z,98406.89
2019-04-04T20:20:31.531Z,98413.19
2019-04-04T20:22:58.110Z,98413.81
2019-04-04T20:25:24.698Z,98418.91
2019-04-04T20:27:55.015Z,98422.81
2019-04-04T20:30:19.588Z,98423.44
2019-04-04T20:32:46.218Z,98430.73
2019-04-04T20:35:12.799Z,98432.33
2019-04-04T20:37:39.383Z,98432.95
2019-04-04T20:40:05.977Z,98443.23
2019-04-04T20:42:32.546Z,98446.37
2019-04-04T20:44:59.143Z,98451.11
2019-04-04T20:47:25.722Z,98447.56
2019-04-04T20:49:52.337Z,98445.44
2019-04-04T20:52:18.905Z,98447.80
2019-04-04T20:54:45.532Z,98448.72
2019-04-04T20:57:12.112Z,98451.28
2019-04-04T20:59:38.719Z,98452.03
2019-04-04T21:02:05.300Z,98451.81
2019-04-04T21:04:32.004Z,98457.42
2019-04-04T21:06:58.587Z,98451.05
2019-04-04T21:09:25.198Z,98450.70
2019-04-04T21:11:51.783Z,98451.31
2019-04-04T21:14:18.400Z,98446.98
2019-04-04T21:16:44.974Z,98454.09
2019-04-04T21:19:11.591Z,98449.90
2019-04-04T21:21:38.177Z,98453.66
2019-04-04T21:24:04.788Z,98463.23
2019-04-04T21:26:31.365Z,98462.66
2019-04-04T21:28:57.939Z,98462.21
2019-04-04T21:31:24.514Z,98453.67
2019-04-04T21:33:51.092Z,98457.11
2019-04-04T21:36:17.676Z,98459.66
2019-04-04T21:38:44.330Z,98459.53
2019-04-04T21:41:10.912Z,98457.76
2019-04-04T21:43:37.487Z,98460.22
2019-04-04T21:46:04.068Z,98453.72
2019-04-04T21:48:30.640Z,98458.56
2019-04-04T21:50:57.216Z,98463.28
2019-04-04T21:53:23.803Z,98467.03
2019-04-04T21:55:50.386Z,98471.78
2019-04-04T21:58:16.972Z,98466.25
2019-04-04T22:00:43.556Z,98475.53
2019-04-04T22:03:10.136Z,98476.14
2019-04-04T22:05:36.730Z,98472.42
2019-04-04T22:08:03.360Z,98471.71
2019-04-04T22:10:29.941Z,98470.64
2019-04-04T22:12:56.539Z,98475.94
2019-04-04T22:15:23.131Z,98477.39
2019-04-04T22:17:49.814Z,98476.36
2019-04-04T22:20:16.430Z,98476.97
2019-04-04T22:22:43.111Z,98475.05
2019-04-04T22:25:09.762Z,98473.98
2019-04-04T22:27:36.326Z,98471.94
2019-04-04T22:30:02.985Z,98478.49
2019-04-04T22:32:29.558Z,98475.25
2019-04-04T22:34:56.157Z,98471.66
2019-04-04T22:37:22.731Z,98475.52
2019-04-04T22:39:49.336Z,98478.22
2019-04-04T22:42:15.934Z,98475.95
2019-04-04T22:44:42.554Z,98471.50
2019-04-04T22:47:09.139Z,98480.70
2019-04-04T22:49:35.711Z,98479.02
2019-04-04T22:52:02.293Z,98479.39
2019-04-04T22:54:28.871Z,98481.61
2019-04-04T22:56:55.461Z,98478.13
2019-04-04T22:59:22.028Z,98483.06
2019-04-04T23:01:48.767Z,98489.59
2019-04-04T23:04:15.347Z,98481.91
2019-04-04T23:06:41.952Z,98476.58
2019-04-04T23:09:08.519Z,98481.75
2019-04-04T23:11:35.101Z,98477.70
2019-04-04T23:14:01.685Z,98483.23
2019-04-04T23:16:28.382Z,98484.44
2019-04-04T23:18:55.065Z,98484.31
2019-04-04T23:21:21.656Z,98483.27
2019-04-04T23:23:48.233Z,98480.98
2019-04-04T23:26:14.841Z,98487.34
2019-04-04T23:28:41.434Z,98483.63
2019-04-04T23:31:08.047Z,98479.89
2019-04-04T23:33:34.633Z,98477.16
2019-04-04T23:36:01.245Z,98480.88
2019-04-04T23:38:27.811Z,98482.31
2019-04-04T23:40:54.421Z,98482.55
2019-04-04T23:43:21.007Z,98481.83
2019-04-04T23:45:47.636Z,98482.10
2019-04-04T23:48:14.214Z,98482.70
2019-04-04T23:50:40.864Z,98481.98
2019-04-04T23:53:07.428Z,98478.24
2019-04-04T23:55:34.035Z,98473.92
2019-04-04T23:58:00.623Z,98476.31
